Scranton, PA (18501)

8:10 AM EDT on May 29, 2017 (GMT -0400)
tripps park | | Change Station

Elev 909 ft 41.43 °N, 75.68 °W | Updated 18 seconds ago

Rain
Rain
54.9 °F
Feels Like 54.9 °F
N
0.0
Wind Variable Wind from SW

Today
High -- | Low -- °F
--% Chance of Precip.
Yesterday
High -- | Low -- °F
Precip. -- in
Pressure 29.87 in
Visibility 9.0 miles
Clouds Mostly Cloudy 1800 ft
Overcast 4300 ft
Dew Point 53 °F
Humidity 95%
Rainfall 0.62 in
Snow Depth Not available.
5:32 AM 8:27 PM
Waxing Crescent, 19% visible
SPECI KAVP 291206Z 03004KT 9SM -RA BKN018 OVC043 13/12 A2987 RMK AO2 P0000 T01330122
Pressure 29.87 in
Visibility 9.0 miles
Clouds Mostly Cloudy 1800 ft
Overcast 4300 ft
Dew Point 53 °F
Humidity 95%
Rainfall 0.62 in
Snow Depth Not available.
5:32 AM 8:27 PM
Waxing Crescent, 19% visible
SPECI KAVP 291206Z 03004KT 9SM -RA BKN018 OVC043 13/12 A2987 RMK AO2 P0000 T01330122

Get Severe Weather Alerts

Thanks for signing up!

Be on the lookout for a verification email in your inbox.

You'll start receiving the daily forecast at 6 AM.

×

10-Day Weather Forecast

Almanac

Astronomy

May. 29, 2017 Rise Set
Actual Time
Civil Twilight
Nautical Twilight
Astronomical Twilight
Moon
Length of Visible Light
Length of Day
Tomorrow will be .
, % of the Moon is Illuminated

Today's Extremes

State Highs State Lows

Community

WunderPhotos

Category 6

Welcome to Category 6. This is the collective home for Weather Underground's featured writeups by Dr. Jeff Masters (right), Bob Henson (left), Chris Burt, and other regular contributors.

Nearby

Air Quality

  Air Quality AQ Index Pollutant
Not available.

Snow Depth

Station Depth Elevation

Earthquake Activity

City Distance Mag. Time & Date
Minimum magnitude displayed is 2.5.

Coastal Water Temperatures

Place Temperature

Stations

Nearby Weather Stations

Station Location Temp. Windchill Dew Point Humidity Wind Precip. Elev Updated Type
                   

Watches & Warnings

There are currently no watches in effect.